Time;durP1;ratioP1;P1;durP2;ratioP2;P2;SDS_P1;SDS_P2;PMS_P1;PMS_P2;Temp;Humidity;BMP_temperature;BMP_pressure;BME280_temperature;BME280_humidity;BME280_pressure;Samples;Min_cycle;Max_cycle;Signal;HPM_P1;HPM_P2
2023/08/20 00:01:05;;;;;;;32.60;20.30;;;;;;;23.03;72.59;101008.08;111190;1207;98043;-59
2023/08/20 00:03:31;;;;;;;34.60;21.70;;;;;;;23.02;72.71;101011.11;111078;1209;99386;-59
2023/08/20 00:05:56;;;;;;;27.90;20.10;;;;;;;23.02;73.10;101011.09;110958;1213;139517;-59
2023/08/20 00:08:22;;;;;;;31.00;21.00;;;;;;;22.99;72.92;101009.81;111182;1211;97607;-59
2023/08/20 00:10:47;;;;;;;30.00;20.30;;;;;;;22.98;73.17;101008.26;110915;1210;139736;-59
2023/08/20 00:13:13;;;;;;;32.90;22.80;;;;;;;22.98;73.08;101004.27;111028;1211;97627;-59
2023/08/20 00:15:39;;;;;;;28.10;21.20;;;;;;;22.94;73.25;101005.33;111144;1211;97674;-59
2023/08/20 00:18:05;;;;;;;30.10;21.90;;;;;;;22.90;73.28;101004.30;110947;1216;139851;-59
2023/08/20 00:20:30;;;;;;;32.70;22.30;;;;;;;22.83;73.43;101001.08;111046;1211;97612;-59
2023/08/20 00:22:56;;;;;;;29.40;22.20;;;;;;;22.78;73.55;101004.65;110991;1219;139591;-59
2023/08/20 00:25:22;;;;;;;33.50;21.60;;;;;;;22.74;73.98;101004.45;111072;1209;97656;-59
2023/08/20 00:27:47;;;;;;;34.50;23.00;;;;;;;22.70;73.89;101003.14;111057;1211;97590;-59
2023/08/20 00:30:12;;;;;;;29.50;21.60;;;;;;;22.69;74.34;101004.88;110965;1211;139869;-59
2023/08/20 00:32:38;;;;;;;30.10;21.10;;;;;;;22.70;74.25;101005.00;110999;1211;97668;-59
2023/08/20 00:35:04;;;;;;;33.30;22.20;;;;;;;22.68;74.43;101009.33;111100;1211;139215;-59
2023/08/20 00:37:30;;;;;;;31.80;23.00;;;;;;;22.67;74.52;101009.96;111020;1211;97681;-59
2023/08/20 00:39:57;;;;;;;27.50;22.10;;;;;;;22.66;74.64;101009.15;110977;1211;139510;-59
2023/08/20 00:42:22;;;;;;;34.80;21.70;;;;;;;22.64;74.76;101005.29;111060;1211;97591;-59
2023/08/20 00:44:47;;;;;;;30.70;21.30;;;;;;;22.61;74.71;101004.69;111096;1211;97653;-60
2023/08/20 00:47:13;;;;;;;34.20;21.60;;;;;;;22.58;75.10;101008.59;110921;1208;139345;-59
2023/08/20 00:49:40;;;;;;;30.70;20.90;;;;;;;22.53;75.10;101000.80;111088;1211;97673;-59
2023/08/20 00:52:08;;;;;;;28.80;22.30;;;;;;;22.51;75.22;101003.94;110955;1207;140169;-59
2023/08/20 00:54:34;;;;;;;32.30;22.00;;;;;;;22.46;75.46;101001.98;111042;1211;103061;-59
2023/08/20 00:57:01;;;;;;;36.50;20.40;;;;;;;22.45;75.38;100998.24;111048;1211;97636;-59
2023/08/20 00:59:27;;;;;;;33.50;22.20;;;;;;;22.45;75.65;100997.49;110914;1208;140284;-59
2023/08/20 01:01:52;;;;;;;33.10;21.30;;;;;;;22.43;75.79;100996.27;111151;1212;97648;-59
2023/08/20 01:04:18;;;;;;;34.80;23.10;;;;;;;22.40;75.90;100995.25;110931;1210;139901;-59
2023/08/20 01:06:46;;;;;;;29.40;20.70;;;;;;;22.38;76.12;100991.75;111081;1214;97601;-62
2023/08/20 01:09:32;;;;;;;35.00;21.50;;;;;;;22.37;76.12;100993.33;111043;1211;97678;-59
2023/08/20 01:12:00;;;;;;;36.30;21.00;;;;;;;22.32;76.19;100994.21;110953;1214;139101;-59
2023/08/20 01:14:26;;;;;;;32.00;20.30;;;;;;;22.27;76.03;100999.82;111095;1208;102653;-59
2023/08/20 01:16:51;;;;;;;31.10;20.00;;;;;;;22.21;76.15;101002.52;110987;1211;138834;-59
2023/08/20 01:19:20;;;;;;;31.20;21.10;;;;;;;22.14;76.41;101004.06;111060;1220;97578;-60
2023/08/20 01:22:04;;;;;;;26.40;19.60;;;;;;;22.07;76.56;101005.06;111132;1212;97594;-59
2023/08/20 01:24:53;;;;;;;29.40;21.30;;;;;;;22.00;76.73;101005.58;110980;1211;102833;-59
2023/08/20 01:27:37;;;;;;;33.40;21.90;;;;;;;21.94;77.08;101009.17;111006;1211;97683;-59
2023/08/20 01:30:03;;;;;;;33.70;21.40;;;;;;;21.91;77.23;101007.65;110961;1211;139221;-59
2023/08/20 01:32:29;;;;;;;31.60;24.20;;;;;;;21.91;77.29;101010.94;111084;1211;100128;-59
2023/08/20 01:34:54;;;;;;;31.30;23.20;;;;;;;21.90;77.60;101010.95;111032;1211;140476;-59
2023/08/20 01:37:20;;;;;;;29.90;23.00;;;;;;;21.91;77.45;101012.71;111059;1211;97642;-59
2023/08/20 01:39:45;;;;;;;34.80;23.50;;;;;;;21.93;77.87;101010.01;111031;1211;97590;-59
2023/08/20 01:42:11;;;;;;;35.10;22.10;;;;;;;21.93;77.78;101010.23;111006;1211;139790;-60
2023/08/20 01:44:36;;;;;;;31.40;24.60;;;;;;;21.90;78.06;101008.05;111067;1208;97611;-59
2023/08/20 01:47:01;;;;;;;36.90;21.50;;;;;;;21.90;78.17;101011.38;111031;1211;139036;-59
2023/08/20 01:49:27;;;;;;;34.40;23.80;;;;;;;21.91;78.28;101014.20;110914;1223;97751;-59
2023/08/20 01:51:52;;;;;;;29.30;22.30;;;;;;;21.93;78.37;101015.31;111052;1209;97574;-59
2023/08/20 01:54:17;;;;;;;33.80;21.70;;;;;;;21.95;78.48;101013.67;110990;1211;138700;-59
2023/08/20 01:56:42;;;;;;;33.60;21.60;;;;;;;21.96;78.65;101019.20;111078;1212;97659;-59
2023/08/20 01:59:08;;;;;;;31.50;21.30;;;;;;;21.96;78.67;101020.86;111001;1217;141172;-59
2023/08/20 02:01:33;;;;;;;27.40;21.30;;;;;;;21.95;78.65;101022.00;111066;1211;97681;-59
2023/08/20 02:03:58;;;;;;;34.70;21.40;;;;;;;21.94;78.82;101025.76;110985;1211;140023;-59
2023/08/20 02:06:24;;;;;;;32.00;20.40;;;;;;;21.93;78.97;101026.73;111037;1211;98063;-59
2023/08/20 02:08:49;;;;;;;31.40;21.40;;;;;;;21.93;79.32;101030.17;111046;1211;97590;-59
2023/08/20 02:11:14;;;;;;;31.40;22.00;;;;;;;21.95;79.41;101036.75;110972;1212;138720;-60
2023/08/20 02:13:39;;;;;;;30.80;22.00;;;;;;;21.95;79.07;101036.73;111029;1222;97445;-59
2023/08/20 02:16:06;;;;;;;28.70;21.90;;;;;;;21.92;79.30;101041.34;110995;1211;139873;-59
2023/08/20 02:18:32;;;;;;;32.90;19.50;;;;;;;21.91;79.49;101044.40;111019;1211;102880;-59
2023/08/20 02:20:57;;;;;;;31.20;20.80;;;;;;;21.91;79.51;101040.95;111033;1211;98515;-59
2023/08/20 02:23:23;;;;;;;34.60;21.00;;;;;;;21.90;79.67;101039.54;111031;1212;138922;-59
2023/08/20 02:25:49;;;;;;;33.10;21.00;;;;;;;21.87;79.57;101037.09;111112;1212;97672;-59
2023/08/20 02:28:14;;;;;;;27.50;20.30;;;;;;;21.83;79.55;101037.25;110789;1212;138695;-59
2023/08/20 02:30:45;;;;;;;25.60;19.80;;;;;;;21.82;79.79;101040.43;111210;1212;97802;-59
2023/08/20 02:33:10;;;;;;;28.20;19.00;;;;;;;21.81;79.98;101039.19;111050;1221;97597;-59
2023/08/20 02:35:37;;;;;;;28.60;19.80;;;;;;;21.81;79.91;101038.55;111037;1211;138805;-59
2023/08/20 02:38:02;;;;;;;26.20;20.30;;;;;;;21.77;79.90;101042.64;111268;1212;97649;-59
2023/08/20 02:40:28;;;;;;;27.50;18.50;;;;;;;21.73;80.15;101040.27;110930;1209;140557;-59
2023/08/20 02:42:53;;;;;;;25.90;20.20;;;;;;;21.69;80.09;101038.93;111073;1211;100980;-59
2023/08/20 02:45:18;;;;;;;26.20;18.00;;;;;;;21.66;80.21;101037.06;111104;1212;98023;-59
2023/08/20 02:47:43;;;;;;;26.10;18.40;;;;;;;21.64;80.36;101034.80;110906;1212;138748;-59
2023/08/20 02:50:09;;;;;;;26.80;18.80;;;;;;;21.62;80.31;101037.70;111095;1210;97792;-60
2023/08/20 02:52:34;;;;;;;27.00;19.10;;;;;;;21.60;80.22;101036.95;110960;1207;139147;-59
2023/08/20 02:54:59;;;;;;;28.20;19.60;;;;;;;21.55;80.56;101030.00;111061;1210;97612;-59
2023/08/20 02:57:25;;;;;;;28.10;19.60;;;;;;;21.52;80.76;101030.43;111078;1211;97633;-59
2023/08/20 02:59:51;;;;;;;25.30;18.70;;;;;;;21.52;81.05;101029.45;110934;1212;139246;-59
2023/08/20 03:02:16;;;;;;;27.00;19.80;;;;;;;21.54;80.95;101031.13;111074;1208;97630;-59
2023/08/20 03:04:42;;;;;;;27.50;20.70;;;;;;;21.51;81.12;101026.11;110928;1211;139471;-59
2023/08/20 03:07:08;;;;;;;25.10;19.20;;;;;;;21.48;81.14;101025.67;111013;1212;97632;-59
2023/08/20 03:09:33;;;;;;;35.60;19.00;;;;;;;21.46;81.31;101017.05;111092;1210;97857;-59
2023/08/20 03:11:58;;;;;;;28.90;20.70;;;;;;;21.47;81.44;101013.92;110995;1212;138901;-59
2023/08/20 03:14:24;;;;;;;29.70;19.90;;;;;;;21.46;81.42;101017.61;111139;1214;97702;-63
2023/08/20 03:16:49;;;;;;;29.80;20.70;;;;;;;21.45;81.56;101012.59;110970;1209;138671;-59
2023/08/20 03:19:15;;;;;;;34.30;20.90;;;;;;;21.43;81.53;101010.39;111110;1209;97604;-59
2023/08/20 03:21:40;;;;;;;28.80;20.70;;;;;;;21.41;81.58;101007.34;111146;1221;97706;-59
2023/08/20 03:24:07;;;;;;;26.70;20.70;;;;;;;21.39;81.70;101007.07;110953;1212;140440;-59
2023/08/20 03:26:32;;;;;;;29.50;21.80;;;;;;;21.38;81.78;101011.02;111164;1209;97681;-59
2023/08/20 03:28:58;;;;;;;29.50;21.00;;;;;;;21.37;81.91;101012.30;111127;1212;138793;-59
2023/08/20 03:31:24;;;;;;;26.00;20.80;;;;;;;21.37;82.06;101008.54;111087;1212;100037;-59
2023/08/20 03:33:49;;;;;;;27.40;20.70;;;;;;;21.36;82.13;101010.42;111074;1210;97597;-59
2023/08/20 03:36:14;;;;;;;31.90;21.10;;;;;;;21.35;82.06;101010.91;111040;1206;139512;-59
2023/08/20 03:38:39;;;;;;;28.40;20.20;;;;;;;21.34;82.17;101016.05;111095;1209;97637;-59
2023/08/20 03:41:05;;;;;;;27.60;20.30;;;;;;;21.33;82.27;101013.80;111044;1212;138785;-59
2023/08/20 03:43:30;;;;;;;28.60;20.50;;;;;;;21.30;82.20;101019.08;111060;1224;97685;-59
2023/08/20 03:45:55;;;;;;;29.20;21.30;;;;;;;21.28;82.42;101022.55;111202;1212;99040;-59
2023/08/20 03:48:21;;;;;;;34.20;21.40;;;;;;;21.25;82.47;101025.19;111009;1209;140550;-59
2023/08/20 03:50:46;;;;;;;29.70;20.80;;;;;;;21.21;82.50;101029.11;111096;1212;96439;-59
2023/08/20 03:53:11;;;;;;;37.50;21.40;;;;;;;21.20;82.66;101032.27;111055;1210;138880;-59
2023/08/20 03:55:36;;;;;;;30.20;21.10;;;;;;;21.21;82.70;101033.50;111089;1212;97679;-59
2023/08/20 03:58:02;;;;;;;30.10;22.70;;;;;;;21.24;82.90;101035.79;111030;1212;140761;-59
2023/08/20 04:00:28;;;;;;;30.70;21.60;;;;;;;21.27;83.01;101037.52;111095;1212;97607;-59
2023/08/20 04:02:53;;;;;;;32.10;22.40;;;;;;;21.31;83.06;101038.11;111097;1212;97588;-59
2023/08/20 04:05:18;;;;;;;30.20;22.30;;;;;;;21.34;83.13;101035.69;111012;1212;138727;-59
2023/08/20 04:07:43;;;;;;;30.10;22.30;;;;;;;21.35;83.13;101038.88;111112;1212;97679;-59
2023/08/20 04:10:09;;;;;;;32.50;21.80;;;;;;;21.37;83.16;101040.17;111063;1212;140542;-59
2023/08/20 04:12:34;;;;;;;31.80;22.50;;;;;;;21.39;83.23;101043.63;111150;1209;97759;-59
2023/08/20 04:14:59;;;;;;;35.90;23.40;;;;;;;21.42;83.20;101032.90;111098;1212;97901;-59
2023/08/20 04:17:25;;;;;;;34.50;24.00;;;;;;;21.42;83.17;101038.55;111019;1209;140189;-59
2023/08/20 04:19:50;;;;;;;27.20;21.00;;;;;;;21.42;83.25;101037.98;111114;1209;97713;-59
2023/08/20 04:22:15;;;;;;;32.50;22.70;;;;;;;21.44;83.45;101042.56;111089;1212;138802;-59
2023/08/20 04:24:40;;;;;;;31.00;22.60;;;;;;;21.46;83.51;101044.17;111101;1212;97658;-59
2023/08/20 04:27:06;;;;;;;33.50;22.50;;;;;;;21.48;83.59;101049.42;111092;1215;97682;-59
2023/08/20 04:29:31;;;;;;;34.20;23.30;;;;;;;21.51;83.46;101050.14;111030;1212;138801;-59
2023/08/20 04:31:56;;;;;;;35.40;24.00;;;;;;;21.54;83.47;101055.89;111142;1216;97700;-59
2023/08/20 04:34:22;;;;;;;35.80;25.80;;;;;;;21.56;83.54;101058.21;110876;1212;139123;-59
2023/08/20 04:36:47;;;;;;;33.80;23.50;;;;;;;21.58;83.68;101061.88;111137;1212;97616;-59
2023/08/20 04:39:12;;;;;;;36.10;23.40;;;;;;;21.62;83.57;101056.96;111182;1212;97745;-59
2023/08/20 04:41:37;;;;;;;35.20;22.90;;;;;;;21.65;83.67;101059.11;110991;1221;140220;-59
2023/08/20 04:44:03;;;;;;;30.70;23.10;;;;;;;21.67;83.57;101060.39;111153;1212;97671;-59
2023/08/20 04:46:28;;;;;;;26.40;22.40;;;;;;;21.70;83.53;101062.52;110970;1210;139431;-59
2023/08/20 04:48:53;;;;;;;28.60;22.70;;;;;;;21.72;83.66;101064.35;111128;1209;97596;-59
2023/08/20 04:51:19;;;;;;;30.10;23.30;;;;;;;21.76;83.59;101064.55;110963;1212;97620;-59
2023/08/20 04:53:44;;;;;;;27.60;22.30;;;;;;;21.81;83.68;101063.12;110843;1228;139035;-59
2023/08/20 04:56:09;;;;;;;26.80;22.00;;;;;;;21.86;83.60;101066.25;111199;1209;97621;-59
2023/08/20 04:58:34;;;;;;;31.50;21.80;;;;;;;21.91;83.84;101061.69;110989;1207;139454;-59
2023/08/20 05:01:00;;;;;;;31.50;22.30;;;;;;;21.95;83.92;101065.67;111031;1209;97715;-59
2023/08/20 05:03:25;;;;;;;24.00;19.70;;;;;;;21.99;83.70;101067.15;111108;1212;97664;-59
2023/08/20 05:05:51;;;;;;;27.90;21.30;;;;;;;22.06;83.94;101070.09;111035;1211;139754;-59
2023/08/20 05:08:16;;;;;;;26.60;22.40;;;;;;;22.12;83.91;101067.59;111157;1221;97558;-59
2023/08/20 05:10:42;;;;;;;27.60;21.70;;;;;;;22.18;83.76;101070.14;111017;1209;139221;-59
2023/08/20 05:13:08;;;;;;;24.90;19.60;;;;;;;22.24;83.80;101066.89;111111;1225;97609;-59
2023/08/20 05:15:33;;;;;;;26.10;20.00;;;;;;;22.31;83.83;101071.37;111117;1212;97607;-60
2023/08/20 05:17:58;;;;;;;30.00;21.00;;;;;;;22.37;83.63;101072.31;110947;1221;141683;-59
2023/08/20 05:20:24;;;;;;;27.60;20.10;;;;;;;22.45;83.65;101072.59;111166;1209;97872;-59
2023/08/20 05:22:49;;;;;;;30.70;21.30;;;;;;;22.54;83.49;101075.80;110996;1212;139293;-59
2023/08/20 05:25:14;;;;;;;25.70;20.50;;;;;;;22.60;83.35;101073.02;111041;1212;97621;-59
2023/08/20 05:27:39;;;;;;;31.60;21.60;;;;;;;22.68;83.52;101076.70;111168;1210;99001;-59
2023/08/20 05:30:08;;;;;;;26.50;21.40;;;;;;;22.83;83.45;101077.77;110944;1212;139986;-59
2023/08/20 05:32:33;;;;;;;27.90;20.10;;;;;;;22.95;83.52;101073.50;111195;1212;97701;-59
2023/08/20 05:34:58;;;;;;;31.90;21.70;;;;;;;23.05;83.49;101075.86;111098;1212;138873;-59
2023/08/20 05:37:23;;;;;;;32.10;22.80;;;;;;;23.18;83.49;101072.17;111125;1211;97693;-59
2023/08/20 05:39:49;;;;;;;34.40;21.90;;;;;;;23.30;83.35;101077.27;111125;1209;97607;-59
2023/08/20 05:42:14;;;;;;;35.20;23.90;;;;;;;23.42;83.13;101081.44;111089;1212;139521;-59
2023/08/20 05:44:39;;;;;;;31.70;22.80;;;;;;;23.53;82.90;101083.38;111118;1209;98337;-59
2023/08/20 05:47:05;;;;;;;28.60;22.40;;;;;;;23.65;82.90;101082.25;111108;1212;139263;-59
2023/08/20 05:49:31;;;;;;;29.20;22.60;;;;;;;23.75;82.74;101082.63;111152;1212;97703;-59
2023/08/20 05:51:56;;;;;;;26.20;21.30;;;;;;;23.85;82.36;101082.21;111209;1210;141909;-61
2023/08/20 05:54:22;;;;;;;26.10;20.60;;;;;;;23.98;82.45;101079.03;111261;1212;97598;-60
2023/08/20 05:56:47;;;;;;;25.10;20.80;;;;;;;24.08;82.15;101083.46;111167;1209;97696;-58
2023/08/20 05:59:12;;;;;;;27.60;22.20;;;;;;;24.17;81.86;101084.76;111115;1210;138823;-59
2023/08/20 06:01:37;;;;;;;25.40;20.80;;;;;;;24.25;81.70;101085.12;111172;1212;97724;-59
2023/08/20 06:04:03;;;;;;;23.10;19.40;;;;;;;24.34;81.38;101087.77;111039;1209;139390;-61
2023/08/20 06:06:29;;;;;;;21.20;17.70;;;;;;;24.44;81.19;101088.80;111285;1212;98228;-59
2023/08/20 06:08:54;;;;;;;20.90;17.60;;;;;;;24.53;80.99;101087.06;111144;1212;97578;-59
2023/08/20 06:11:20;;;;;;;22.30;17.30;;;;;;;24.63;80.70;101085.35;111111;1210;138949;-59
2023/08/20 06:13:45;;;;;;;22.40;17.00;;;;;;;24.72;80.38;101085.73;111141;1212;102725;-59
2023/08/20 06:16:11;;;;;;;20.50;17.00;;;;;;;24.81;80.12;101089.23;111090;1212;138967;-59
2023/08/20 06:18:36;;;;;;;23.20;17.00;;;;;;;24.92;79.75;101088.23;111006;1210;97640;-59
2023/08/20 06:21:02;;;;;;;17.80;14.40;;;;;;;25.02;79.32;101089.48;111145;1210;97694;-59
2023/08/20 06:23:28;;;;;;;18.20;14.40;;;;;;;25.07;79.20;101090.30;111107;1211;138839;-59
2023/08/20 06:25:53;;;;;;;17.80;13.70;;;;;;;25.12;78.83;101089.70;111208;1222;98241;-59
2023/08/20 06:28:19;;;;;;;17.40;13.70;;;;;;;25.19;78.47;101093.27;111008;1212;138992;-60
2023/08/20 06:30:45;;;;;;;16.10;13.30;;;;;;;25.28;78.30;101092.56;111224;1208;97694;-60
2023/08/20 06:33:11;;;;;;;17.20;13.70;;;;;;;25.38;78.00;101095.02;111151;1220;97693;-60
2023/08/20 06:35:36;;;;;;;22.50;13.80;;;;;;;25.49;77.71;101096.84;111035;1209;138625;-59
2023/08/20 06:38:02;;;;;;;15.30;12.40;;;;;;;25.58;77.37;101095.12;111195;1209;98543;-60
2023/08/20 06:40:27;;;;;;;15.40;13.40;;;;;;;25.67;77.08;101094.95;111014;1209;140722;-60
2023/08/20 06:42:53;;;;;;;18.90;13.40;;;;;;;25.79;76.84;101095.00;111169;1219;97611;-60
2023/08/20 06:45:18;;;;;;;19.40;14.40;;;;;;;25.89;76.42;101100.02;111146;1212;97768;-60
2023/08/20 06:47:43;;;;;;;17.70;13.30;;;;;;;25.97;76.28;101101.77;111036;1212;140469;-60
2023/08/20 06:50:09;;;;;;;14.80;12.20;;;;;;;26.07;75.92;101105.48;111192;1209;97552;-60
2023/08/20 06:52:34;;;;;;;12.30;10.80;;;;;;;26.13;75.49;101108.77;111210;1209;138835;-60
2023/08/20 06:55:00;;;;;;;11.70;10.40;;;;;;;26.18;75.30;101106.88;111130;1212;98596;-62
2023/08/20 06:57:25;;;;;;;13.00;10.80;;;;;;;26.24;74.81;101110.02;111191;1212;97802;-59
2023/08/20 06:59:50;;;;;;;12.00;10.80;;;;;;;26.31;74.50;101110.76;111008;1212;140272;-60
2023/08/20 07:02:15;;;;;;;12.20;10.70;;;;;;;26.40;74.24;101113.02;111114;1212;97584;-61
2023/08/20 07:04:41;;;;;;;13.90;10.70;;;;;;;26.42;73.74;101118.76;111036;1212;139443;-59
2023/08/20 07:07:06;;;;;;;15.50;10.10;;;;;;;26.43;73.41;101122.71;111190;1209;97619;-60
2023/08/20 07:09:31;;;;;;;11.60;10.30;;;;;;;26.48;73.22;101117.57;111065;1209;99081;-60
2023/08/20 07:11:57;;;;;;;14.30;10.70;;;;;;;26.55;72.91;101123.20;111019;1209;138709;-60
2023/08/20 07:14:22;;;;;;;12.70;10.20;;;;;;;26.57;72.43;101122.70;111180;1212;97593;-60
2023/08/20 07:16:48;;;;;;;13.90;10.50;;;;;;;26.61;72.22;101121.95;111008;1209;138763;-59
2023/08/20 07:19:13;;;;;;;13.40;11.00;;;;;;;26.68;72.02;101123.10;111122;1219;97615;-59
2023/08/20 07:21:38;;;;;;;14.70;11.10;;;;;;;26.74;71.85;101119.67;111068;1212;97795;-59
2023/08/20 07:24:04;;;;;;;14.90;11.10;;;;;;;26.80;71.53;101116.88;110984;1209;139391;-59
2023/08/20 07:26:29;;;;;;;11.70;10.50;;;;;;;26.88;71.39;101118.41;111213;1212;97660;-59
2023/08/20 07:28:57;;;;;;;13.10;10.60;;;;;;;26.91;71.02;101115.48;110968;1210;140477;-60
2023/08/20 07:31:28;;;;;;;13.60;11.30;;;;;;;26.94;70.84;101119.40;111176;1222;97669;-60
2023/08/20 07:33:55;;;;;;;11.80;10.60;;;;;;;27.01;70.60;101124.27;111110;1209;102985;-60
2023/08/20 07:36:21;;;;;;;12.20;11.00;;;;;;;27.08;70.29;101126.43;111013;1209;140137;-60
2023/08/20 07:38:48;;;;;;;11.70;10.30;;;;;;;27.15;70.14;101128.45;111165;1212;97694;-60
2023/08/20 07:41:13;;;;;;;15.40;10.80;;;;;;;27.23;70.13;101127.94;111103;1212;139438;-60
2023/08/20 07:43:39;;;;;;;14.40;11.50;;;;;;;27.32;69.90;101124.61;111248;1209;97614;-60
2023/08/20 07:46:06;;;;;;;13.50;10.70;;;;;;;27.37;69.67;101124.72;111082;1212;140307;-60
2023/08/20 07:48:31;;;;;;;13.20;11.70;;;;;;;27.48;69.56;101125.98;111158;1209;97679;-60
2023/08/20 07:50:56;;;;;;;12.00;10.90;;;;;;;27.61;69.33;101133.05;111254;1210;97588;-59
2023/08/20 07:53:22;;;;;;;11.40;10.00;;;;;;;27.71;69.06;101133.77;111078;1212;140240;-60
2023/08/20 07:55:47;;;;;;;10.70;8.90;;;;;;;27.76;68.84;101131.58;111308;1212;98366;-60
2023/08/20 07:58:12;;;;;;;12.00;9.60;;;;;;;27.81;68.46;101136.05;111080;1212;139346;-60
2023/08/20 08:00:38;;;;;;;11.00;9.90;;;;;;;27.88;68.08;101137.66;111205;1209;97367;-60
2023/08/20 08:03:03;;;;;;;12.10;10.20;;;;;;;27.94;67.79;101138.46;111260;1212;98880;-60
2023/08/20 08:05:28;;;;;;;13.20;11.40;;;;;;;27.96;67.36;101139.86;111060;1212;139537;-59
2023/08/20 08:07:54;;;;;;;12.00;10.30;;;;;;;27.98;67.15;101137.83;111289;1212;97600;-58
2023/08/20 08:10:19;;;;;;;16.20;11.60;;;;;;;28.00;67.07;101139.66;111095;1209;138325;-58
2023/08/20 08:12:45;;;;;;;12.40;11.00;;;;;;;28.00;66.82;101135.02;111236;1210;98141;-59
2023/08/20 08:15:12;;;;;;;12.00;10.60;;;;;;;28.00;66.58;101138.32;111274;1212;97852;-59
2023/08/20 08:17:37;;;;;;;12.70;11.40;;;;;;;27.97;66.18;101137.76;111152;1212;137959;-59
2023/08/20 08:20:03;;;;;;;16.20;11.20;;;;;;;27.94;66.30;101139.71;111234;1212;97759;-59
2023/08/20 08:22:28;;;;;;;13.60;11.60;;;;;;;27.94;66.14;101139.02;111154;1212;138757;-59
2023/08/20 08:24:53;;;;;;;16.80;13.00;;;;;;;27.95;65.81;101140.61;111142;1208;97934;-59
2023/08/20 08:27:18;;;;;;;13.00;11.40;;;;;;;27.90;65.62;101146.65;111255;1212;99189;-59
2023/08/20 08:29:44;;;;;;;14.10;11.40;;;;;;;27.85;65.57;101143.48;111139;1212;137982;-59
2023/08/20 08:32:10;;;;;;;16.60;12.30;;;;;;;27.89;65.71;101139.42;111122;1212;97661;-59
2023/08/20 08:34:36;;;;;;;15.10;11.60;;;;;;;27.92;65.66;101134.78;110865;1209;138821;-60
2023/08/20 08:37:01;;;;;;;15.30;12.30;;;;;;;27.97;65.56;101133.41;111181;1212;97591;-59
2023/08/20 08:39:26;;;;;;;14.30;11.00;;;;;;;28.05;65.40;101132.59;111143;1211;97604;-60
2023/08/20 08:41:57;;;;;;;17.80;12.30;;;;;;;28.16;65.47;101132.33;111112;1209;139724;-59
2023/08/20 08:44:23;;;;;;;12.90;11.60;;;;;;;28.27;65.28;101132.65;111178;1207;97673;-60
2023/08/20 08:46:50;;;;;;;15.30;11.70;;;;;;;28.41;65.24;101132.38;111174;1208;138816;-59
2023/08/20 08:49:17;;;;;;;12.60;11.20;;;;;;;28.54;64.98;101131.70;111175;1212;97696;-60
2023/08/20 08:51:44;;;;;;;16.00;11.50;;;;;;;28.63;64.90;101130.06;111207;1212;97619;-59
2023/08/20 08:54:10;;;;;;;15.60;12.60;;;;;;;28.69;64.82;101134.88;111056;1209;139210;-59
2023/08/20 08:56:35;;;;;;;13.40;11.50;;;;;;;28.72;64.61;101137.30;111264;1209;97578;-60
2023/08/20 08:59:01;;;;;;;14.50;11.30;;;;;;;28.71;64.36;101136.70;111071;1212;137974;-60
2023/08/20 09:01:26;;;;;;;15.10;11.20;;;;;;;28.67;64.12;101135.33;111202;1212;98600;-59
2023/08/20 09:03:51;;;;;;;12.90;10.90;;;;;;;28.61;64.05;101140.38;111220;1212;97715;-59
2023/08/20 09:06:16;;;;;;;12.00;10.20;;;;;;;28.51;63.60;101147.48;111074;1211;137883;-60
2023/08/20 09:08:42;;;;;;;10.20;9.30;;;;;;;28.47;63.72;101149.41;111256;1210;97277;-59
2023/08/20 09:11:07;;;;;;;16.70;10.40;;;;;;;28.47;63.70;101156.59;111084;1222;138361;-59
2023/08/20 09:13:34;;;;;;;11.60;10.20;;;;;;;28.45;63.53;101153.79;111004;1212;97769;-59
2023/08/20 09:16:02;;;;;;;12.20;10.00;;;;;;;28.39;63.38;101156.32;111080;1211;138678;-59
2023/08/20 09:18:29;;;;;;;11.70;10.60;;;;;;;28.35;63.19;101160.42;110901;1209;98896;-59
2023/08/20 09:20:54;;;;;;;13.70;11.80;;;;;;;28.35;63.14;101162.63;111222;1211;97795;-59
2023/08/20 09:23:19;;;;;;;13.70;10.70;;;;;;;28.34;63.23;101164.24;111115;1209;138935;-59
2023/08/20 09:25:45;;;;;;;12.10;10.60;;;;;;;28.27;62.84;101168.52;111241;1211;97616;-58
2023/08/20 09:28:10;;;;;;;11.90;10.70;;;;;;;28.19;62.82;101165.52;111045;1209;139319;-58
2023/08/20 09:30:36;;;;;;;12.70;10.50;;;;;;;28.16;62.68;101170.02;111239;1208;97613;-61
2023/08/20 09:33:08;;;;;;;12.40;11.20;;;;;;;28.17;62.95;101168.14;111222;1212;97656;-60
2023/08/20 09:35:33;;;;;;;14.90;10.90;;;;;;;28.22;62.91;101167.90;111139;1209;139436;-59
2023/08/20 09:38:04;;;;;;;15.00;12.10;;;;;;;28.29;62.75;101166.44;111187;1211;99945;-59
2023/08/20 09:40:29;;;;;;;;;;;;;;;28.33;62.69;101167.04;111074;1206;138157;-60
2023/08/20 09:42:56;;;;;;;15.60;11.60;;;;;;;28.31;62.46;101161.38;111203;1219;97702;-59
2023/08/20 09:45:23;;;;;;;16.20;10.70;;;;;;;28.35;62.59;101158.26;111296;1209;97649;-60
2023/08/20 09:47:49;;;;;;;14.00;11.30;;;;;;;28.41;62.79;101155.13;111117;1212;140084;-60
2023/08/20 09:50:19;;;;;;;15.00;10.80;;;;;;;28.46;62.77;101159.16;111191;1212;97699;-59
2023/08/20 09:52:55;;;;;;;15.30;10.80;;;;;;;28.51;62.42;101159.63;111152;1208;138277;-59
2023/08/20 09:55:22;;;;;;;11.60;10.40;;;;;;;28.52;62.26;101156.11;111173;1211;103173;-59
2023/08/20 09:57:48;;;;;;;12.80;10.00;;;;;;;28.56;62.28;101156.88;111174;1210;97582;-59
2023/08/20 10:00:14;;;;;;;11.10;10.00;;;;;;;28.61;61.90;101154.95;111153;1211;138704;-62
2023/08/20 10:02:41;;;;;;;13.00;10.20;;;;;;;28.62;61.66;101155.02;111369;1209;97661;-60
2023/08/20 10:05:08;;;;;;;11.80;10.60;;;;;;;28.63;61.57;101152.88;111105;1208;138210;-59
2023/08/20 10:07:35;;;;;;;11.10;9.60;;;;;;;28.69;61.57;101153.13;110923;1209;98498;-59
2023/08/20 10:10:03;;;;;;;10.60;9.60;;;;;;;28.77;61.37;101153.64;111067;1209;138836;-58
2023/08/20 10:12:30;;;;;;;10.40;9.30;;;;;;;28.84;61.19;101149.05;111142;1210;98764;-60
2023/08/20 10:14:57;;;;;;;9.80;8.50;;;;;;;28.93;61.21;101143.42;111186;1211;97626;-60
2023/08/20 10:17:23;;;;;;;11.10;8.10;;;;;;;29.00;61.14;101146.83;111114;1211;139114;-61
2023/08/20 10:19:48;;;;;;;10.90;8.60;;;;;;;29.04;60.80;101144.21;111229;1212;97597;-60
2023/08/20 10:22:14;;;;;;;10.20;8.20;;;;;;;29.08;60.27;101136.89;111014;1211;140481;-60
2023/08/20 10:24:52;;;;;;;10.60;9.30;;;;;;;29.15;60.37;101130.98;111178;1212;97814;-60
2023/08/20 10:27:31;;;;;;;10.20;8.60;;;;;;;29.21;60.16;101129.86;110881;1208;102960;-60
2023/08/20 10:29:58;;;;;;;9.20;8.30;;;;;;;29.28;60.03;101129.12;110851;1212;138501;-60
2023/08/20 10:32:49;;;;;;;12.10;8.00;;;;;;;29.35;59.80;101121.48;111128;1208;99246;-60
2023/08/20 10:35:22;;;;;;;11.20;7.80;;;;;;;29.40;59.36;101119.80;111052;1211;138376;-60
2023/08/20 10:38:07;;;;;;;10.60;8.00;;;;;;;29.47;58.77;101115.35;111190;1210;97314;-60
2023/08/20 10:40:52;;;;;;;9.20;8.30;;;;;;;29.54;58.37;101111.61;111082;1208;138617;-60
2023/08/20 10:43:32;;;;;;;9.80;7.70;;;;;;;29.65;58.30;101107.91;111312;1209;97598;-59
2023/08/20 10:46:18;;;;;;;9.70;7.80;;;;;;;29.75;57.97;101104.09;111077;1212;138986;-61
2023/08/20 10:48:57;;;;;;;10.40;9.50;;;;;;;29.79;57.39;101101.37;111130;1208;97687;-60
2023/08/20 10:51:36;;;;;;;11.90;9.10;;;;;;;29.77;56.94;101102.56;111212;1211;97600;-60
2023/08/20 10:54:02;;;;;;;11.00;8.80;;;;;;;29.78;56.95;101101.39;111072;1211;138458;-59
2023/08/20 10:56:43;;;;;;;12.30;8.90;;;;;;;29.89;57.10;101100.63;111176;1211;98145;-60